Terminal Aerodrome Forecast
Issued by NWS Central Illinois

Home | Current Version | Previous Version | Text Only | Print | Product List | Glossary On
Versions: 1 2 3 4 5 6 7 8 9 10 11 12 13 14 15 16 17 18 19
881
FTUS43 KILX 261735
TAFPIA
TAF
KPIA 261735Z 2618/2718 20013G25KT P6SM BKN100
     FM262000 23015G26KT P6SM SCT150
     FM262300 22010KT P6SM SCT050 BKN250
     FM270200 19006KT P6SM SCT250
     FM271300 17006KT P6SM SCT040=

USA.gov is the U.S. government's official web portal to all federal, state and local government web resources and services.